Time;durP1;ratioP1;P1;durP2;ratioP2;P2;SDS_P1;SDS_P2;PMS_P1;PMS_P2;Temp;Humidity;BMP_temperature;BMP_pressure;BME280_temperature;BME280_humidity;BME280_pressure;Samples;Min_cycle;Max_cycle;Signal;HPM_P1;HPM_P2
2024/04/09 00:02:10;;;;;;;2.92;2.60;;;19.40;65.70;;;;;;5488468;26;20222;-65
2024/04/09 00:04:36;;;;;;;4.18;2.75;;;19.40;65.70;;;;;;5488218;26;20222;-66
2024/04/09 00:07:02;;;;;;;2.78;2.28;;;19.30;65.60;;;;;;5488779;26;20315;-65
2024/04/09 00:09:30;;;;;;;3.28;2.80;;;19.40;65.70;;;;;;5488590;26;20226;-65
2024/04/09 00:11:58;;;;;;;2.58;2.33;;;19.40;65.70;;;;;;5487923;26;20690;-65
2024/04/09 00:14:24;;;;;;;4.10;2.40;;;19.30;65.60;;;;;;5488489;26;20257;-64
2024/04/09 00:16:53;;;;;;;2.88;2.60;;;19.30;65.60;;;;;;5488964;26;20253;-66
2024/04/09 00:19:19;;;;;;;3.80;2.53;;;19.30;65.60;;;;;;5487408;26;20283;-65
2024/04/09 00:21:45;;;;;;;3.00;2.70;;;19.30;65.60;;;;;;5488761;26;20641;-65
2024/04/09 00:24:12;;;;;;;3.00;2.80;;;19.30;65.60;;;;;;5486871;26;20218;-65
2024/04/09 00:26:37;;;;;;;3.25;2.70;;;19.30;65.60;;;;;;5488001;26;20260;-65
2024/04/09 00:29:03;;;;;;;3.35;2.78;;;19.30;65.60;;;;;;5488721;26;20222;-65
2024/04/09 00:31:28;;;;;;;2.75;2.55;;;19.30;65.60;;;;;;5488287;26;20264;-66
2024/04/09 00:33:55;;;;;;;3.15;2.85;;;19.30;65.60;;;;;;5487783;26;20567;-65
2024/04/09 00:36:20;;;;;;;2.70;2.50;;;19.30;65.60;;;;;;5488316;26;20223;-65
2024/04/09 00:38:49;;;;;;;3.22;2.60;;;19.30;65.60;;;;;;5488542;26;20607;-66
2024/04/09 00:41:15;;;;;;;2.63;2.42;;;19.30;65.60;;;;;;5487014;26;20222;-66
2024/04/09 00:43:41;;;;;;;2.88;2.40;;;19.30;65.60;;;;;;5488375;26;20689;-65
2024/04/09 00:46:07;;;;;;;3.08;2.78;;;19.30;65.60;;;;;;5488259;26;20222;-65
2024/04/09 00:48:33;;;;;;;2.50;2.30;;;19.30;65.60;;;;;;5487517;26;20768;-65
2024/04/09 00:50:59;;;;;;;3.33;2.83;;;19.30;65.60;;;;;;5456231;26;20238;-65
2024/04/09 00:53:25;;;;;;;3.10;2.63;;;19.20;65.50;;;;;;5455310;26;20266;-65
2024/04/09 00:55:50;;;;;;;3.17;2.70;;;19.30;65.60;;;;;;5488089;26;20579;-65
2024/04/09 00:58:17;;;;;;;2.92;2.50;;;19.30;65.60;;;;;;5485672;26;20226;-65
2024/04/09 01:00:43;;;;;;;2.53;2.33;;;19.30;65.60;;;;;;5485731;26;20264;-65
2024/04/09 01:03:09;;;;;;;3.38;2.70;;;19.30;65.50;;;;;;5487611;26;20218;-64
2024/04/09 01:05:35;;;;;;;2.90;2.70;;;19.30;65.60;;;;;;5488118;26;20234;-64
2024/04/09 01:08:01;;;;;;;2.78;2.53;;;19.30;65.60;;;;;;5487145;26;20256;-64
2024/04/09 01:10:27;;;;;;;2.63;2.42;;;19.30;65.60;;;;;;5487469;26;20218;-64
2024/04/09 01:12:52;;;;;;;3.67;2.72;;;19.30;65.60;;;;;;5487858;26;20218;-64
2024/04/09 01:15:18;;;;;;;3.75;2.50;;;19.30;65.50;;;;;;5486728;26;20282;-65
2024/04/09 01:17:43;;;;;;;2.53;2.33;;;19.20;65.70;;;;;;5487693;26;20257;-65
2024/04/09 01:20:12;;;;;;;2.90;2.60;;;19.30;65.80;;;;;;5487231;26;20218;-65
2024/04/09 01:22:38;;;;;;;2.65;2.20;;;19.30;65.70;;;;;;5486964;26;20222;-65
2024/04/09 01:25:04;;;;;;;2.42;2.05;;;19.30;65.70;;;;;;5487451;26;20256;-65
2024/04/09 01:27:33;;;;;;;2.65;2.40;;;19.30;65.60;;;;;;5487113;26;20545;-64
2024/04/09 01:30:00;;;;;;;2.65;2.45;;;19.30;65.60;;;;;;5486612;26;20685;-64
2024/04/09 01:32:26;;;;;;;3.10;2.63;;;19.30;65.60;;;;;;5487018;26;20219;-65
2024/04/09 01:34:52;;;;;;;2.53;2.28;;;19.30;65.70;;;;;;5487466;26;20789;-65
2024/04/09 01:37:18;;;;;;;2.42;2.22;;;19.20;65.60;;;;;;5489933;26;20222;-65
2024/04/09 01:39:45;;;;;;;4.35;2.83;;;19.30;65.70;;;;;;5490980;26;20223;-64
2024/04/09 01:42:14;;;;;;;2.40;2.28;;;19.20;65.60;;;;;;5490548;26;20222;-65
2024/04/09 01:44:40;;;;;;;2.50;2.30;;;19.30;65.70;;;;;;5490311;26;20688;-65
2024/04/09 01:47:06;;;;;;;2.90;2.42;;;19.30;65.70;;;;;;5490960;26;20797;-64
2024/04/09 01:49:32;;;;;;;2.97;2.67;;;19.20;65.50;;;;;;5489335;26;20222;-65
2024/04/09 01:51:57;;;;;;;2.72;2.53;;;19.20;65.60;;;;;;5490488;26;20291;-65
2024/04/09 01:54:23;;;;;;;2.40;2.20;;;19.20;65.50;;;;;;5490221;26;20214;-65
2024/04/09 01:56:48;;;;;;;2.42;2.25;;;19.30;65.70;;;;;;5489918;26;20210;-65
2024/04/09 01:59:14;;;;;;;2.42;2.03;;;19.20;65.50;;;;;;5490231;26;20339;-65
2024/04/09 02:01:42;;;;;;;2.40;2.20;;;19.20;65.60;;;;;;5490841;26;20300;-66
2024/04/09 02:04:08;;;;;;;2.47;2.10;;;19.20;65.50;;;;;;5489246;26;20723;-65
2024/04/09 02:06:33;;;;;;;2.55;2.35;;;19.30;65.60;;;;;;5490226;26;20218;-65
2024/04/09 02:08:59;;;;;;;2.90;2.40;;;19.20;65.50;;;;;;5490486;26;20257;-65
2024/04/09 02:11:28;;;;;;;2.40;2.20;;;19.20;65.50;;;;;;5489424;26;20726;-64
2024/04/09 02:13:55;;;;;;;2.88;2.58;;;19.20;65.50;;;;;;5490412;26;20222;-65
2024/04/09 02:16:21;;;;;;;3.47;2.20;;;19.20;65.50;;;;;;5490271;26;20253;-64
2024/04/09 02:18:47;;;;;;;2.60;2.40;;;19.20;65.60;;;;;;5489660;26;20309;-65
2024/04/09 02:21:14;;;;;;;2.30;2.00;;;19.20;65.50;;;;;;5489942;26;20735;-64
2024/04/09 02:23:39;;;;;;;3.50;2.05;;;19.20;65.50;;;;;;5490660;26;20261;-64
2024/04/09 02:26:05;;;;;;;1.98;1.88;;;19.20;65.60;;;;;;5489506;26;20222;-64
2024/04/09 02:28:32;;;;;;;2.40;2.20;;;19.20;65.50;;;;;;5490094;26;20223;-65
2024/04/09 02:30:58;;;;;;;2.72;2.00;;;19.20;65.50;;;;;;5490232;26;20291;-65
2024/04/09 02:33:24;;;;;;;2.20;2.00;;;19.10;65.50;;;;;;5488995;26;20223;-65
2024/04/09 02:35:55;;;;;;;2.42;2.22;;;19.20;65.60;;;;;;5490318;26;20218;-65
2024/04/09 02:38:21;;;;;;;1.95;1.85;;;19.20;65.60;;;;;;5489812;26;20218;-65
2024/04/09 02:40:46;;;;;;;3.17;2.10;;;19.20;65.60;;;;;;5489385;26;20728;-65
2024/04/09 02:43:12;;;;;;;2.53;1.80;;;19.10;65.50;;;;;;5489899;26;20218;-65
2024/04/09 02:45:37;;;;;;;2.53;2.28;;;19.20;65.50;;;;;;5490046;26;20552;-65
2024/04/09 02:48:04;;;;;;;2.20;2.00;;;19.20;65.60;;;;;;5488277;26;21021;-65
2024/04/09 02:50:29;;;;;;;3.78;2.22;;;19.20;65.60;;;;;;5489742;26;20214;-65
2024/04/09 02:52:55;;;;;;;2.22;1.83;;;19.10;65.50;;;;;;5489152;26;20268;-65
2024/04/09 02:55:20;;;;;;;1.88;1.70;;;19.10;65.50;;;;;;5489504;26;20218;-65
2024/04/09 02:57:48;;;;;;;2.08;1.98;;;19.10;65.50;;;;;;5489728;26;20317;-65
2024/04/09 03:00:20;;;;;;;2.30;2.10;;;19.20;65.60;;;;;;5488736;26;20259;-64
2024/04/09 03:02:50;;;;;;;2.05;1.85;;;19.10;65.50;;;;;;5489998;26;20226;-66
2024/04/09 03:05:16;;;;;;;2.40;2.22;;;19.10;65.50;;;;;;5489450;26;20274;-64
2024/04/09 03:07:42;;;;;;;2.03;1.90;;;19.10;65.50;;;;;;5489166;26;20261;-65
2024/04/09 03:10:10;;;;;;;2.22;2.10;;;19.10;65.50;;;;;;5489484;26;20223;-65
2024/04/09 03:12:42;;;;;;;1.70;1.60;;;19.10;65.60;;;;;;5489789;26;20616;-66
2024/04/09 03:15:08;;;;;;;2.53;1.83;;;19.10;65.60;;;;;;5488512;26;20253;-65
2024/04/09 03:17:33;;;;;;;2.28;2.08;;;19.10;65.50;;;;;;5489476;26;20222;-65
2024/04/09 03:19:59;;;;;;;1.75;1.65;;;19.10;65.60;;;;;;5489478;26;20230;-65
2024/04/09 03:22:24;;;;;;;3.50;1.80;;;19.10;65.60;;;;;;5488333;26;20218;-65
2024/04/09 03:24:50;;;;;;;3.50;2.00;;;19.10;65.60;;;;;;5489508;26;20223;-65
2024/04/09 03:27:16;;;;;;;1.77;1.67;;;19.10;65.60;;;;;;5489013;26;20231;-64
2024/04/09 03:29:41;;;;;;;2.00;1.90;;;19.10;65.60;;;;;;5488757;26;20309;-64
2024/04/09 03:32:07;;;;;;;2.10;1.90;;;19.10;65.70;;;;;;5489204;26;20219;-65
2024/04/09 03:34:34;;;;;;;2.80;1.75;;;19.10;65.60;;;;;;5489267;26;20218;-65
2024/04/09 03:37:00;;;;;;;2.45;2.05;;;19.10;65.70;;;;;;5488579;26;20218;-65
2024/04/09 03:39:25;;;;;;;2.45;1.85;;;19.10;65.60;;;;;;5489083;26;20458;-65
2024/04/09 03:41:51;;;;;;;1.90;1.70;;;19.10;65.70;;;;;;5489093;26;20218;-66
2024/04/09 03:44:16;;;;;;;2.00;1.77;;;19.10;65.70;;;;;;5488148;26;20226;-65
2024/04/09 03:46:42;;;;;;;2.28;1.63;;;19.10;65.70;;;;;;5489203;26;20227;-65
2024/04/09 03:49:07;;;;;;;2.25;1.90;;;19.10;65.70;;;;;;5487932;26;20261;-65
2024/04/09 03:51:33;;;;;;;3.05;1.85;;;19.10;65.60;;;;;;5489105;26;20214;-65
2024/04/09 03:53:58;;;;;;;2.10;1.90;;;19.10;65.70;;;;;;5489093;26;20298;-65
2024/04/09 03:56:24;;;;;;;1.58;1.48;;;19.10;65.70;;;;;;5487810;26;20307;-65
2024/04/09 03:58:52;;;;;;;1.73;1.60;;;19.10;65.70;;;;;;5488825;26;20338;-65
2024/04/09 04:01:18;;;;;;;2.40;1.60;;;19.10;65.60;;;;;;5488643;26;20238;-65
2024/04/09 04:03:47;;;;;;;2.78;1.65;;;19.10;65.70;;;;;;5488513;26;20292;-65
2024/04/09 04:06:13;;;;;;;2.42;2.08;;;19.10;65.60;;;;;;5488467;26;20257;-65
2024/04/09 04:08:39;;;;;;;1.83;1.58;;;19.10;65.60;;;;;;5488874;26;20569;-65
2024/04/09 04:11:06;;;;;;;2.70;2.00;;;19.00;65.60;;;;;;5488035;26;20257;-65
2024/04/09 04:13:32;;;;;;;2.10;1.80;;;19.10;65.60;;;;;;5488726;26;20219;-65
2024/04/09 04:16:03;;;;;;;2.95;1.67;;;19.10;65.70;;;;;;5488329;26;20218;-65
2024/04/09 04:18:28;;;;;;;1.90;1.80;;;19.10;65.60;;;;;;5487801;26;20764;-65
2024/04/09 04:20:54;;;;;;;2.20;2.00;;;19.00;65.60;;;;;;5488777;26;20256;-65
2024/04/09 04:23:20;;;;;;;1.83;1.65;;;19.00;65.50;;;;;;5488356;26;20218;-65
2024/04/09 04:26:02;;;;;;;1.95;1.80;;;19.00;65.60;;;;;;5487675;26;20224;-66
2024/04/09 04:28:38;;;;;;;1.85;1.67;;;19.00;65.60;;;;;;5488342;26;21114;-65
2024/04/09 04:31:25;;;;;;;1.60;1.50;;;19.00;65.60;;;;;;5488461;26;20346;-64
2024/04/09 04:33:51;;;;;;;1.80;1.70;;;19.00;65.60;;;;;;5488511;26;20226;-65
2024/04/09 04:36:16;;;;;;;1.70;1.60;;;19.00;65.70;;;;;;5488018;26;20598;-65
2024/04/09 04:38:42;;;;;;;2.30;2.05;;;19.10;65.60;;;;;;5487538;26;20249;-65
2024/04/09 04:41:08;;;;;;;2.05;1.95;;;19.00;65.60;;;;;;5488126;26;20222;-65
2024/04/09 04:43:34;;;;;;;1.70;1.60;;;19.00;65.60;;;;;;5488340;26;20260;-64
2024/04/09 04:46:00;;;;;;;1.75;1.65;;;19.00;65.60;;;;;;5487490;26;20249;-65
2024/04/09 04:48:28;;;;;;;1.85;1.65;;;19.00;65.60;;;;;;5487942;26;20218;-65
2024/04/09 04:50:54;;;;;;;2.03;1.83;;;19.00;65.60;;;;;;5488197;26;20222;-64
2024/04/09 04:53:19;;;;;;;2.38;1.92;;;19.00;65.60;;;;;;5487070;26;20323;-64
2024/04/09 04:55:46;;;;;;;2.10;1.90;;;19.00;65.60;;;;;;5488037;26;20223;-64
2024/04/09 04:58:11;;;;;;;2.45;2.25;;;19.00;65.60;;;;;;5487508;26;20230;-65
2024/04/09 05:00:37;;;;;;;2.60;1.77;;;19.00;65.70;;;;;;5487327;26;20219;-65
2024/04/09 05:03:03;;;;;;;2.25;2.10;;;19.00;65.70;;;;;;5487856;26;20274;-64
2024/04/09 05:05:29;;;;;;;1.80;1.70;;;19.00;65.70;;;;;;5487756;26;20218;-64
2024/04/09 05:07:55;;;;;;;1.80;1.70;;;19.00;65.70;;;;;;5486994;26;20327;-65
2024/04/09 05:10:21;;;;;;;1.85;1.75;;;19.00;65.60;;;;;;5486886;26;20218;-65
2024/04/09 05:12:47;;;;;;;2.28;2.13;;;19.00;65.70;;;;;;5487846;26;20620;-65
2024/04/09 05:15:13;;;;;;;2.13;2.00;;;19.00;65.70;;;;;;5486516;26;20214;-65
2024/04/09 05:17:39;;;;;;;2.00;1.88;;;19.00;65.70;;;;;;5487699;26;20277;-66
2024/04/09 05:20:11;;;;;;;3.40;2.53;;;19.00;65.70;;;;;;5487770;26;20218;-66
2024/04/09 05:22:37;;;;;;;2.33;2.13;;;19.00;65.70;;;;;;5486826;26;20222;-66
2024/04/09 05:25:02;;;;;;;2.30;2.10;;;19.00;65.70;;;;;;5487571;26;20253;-65
2024/04/09 05:27:28;;;;;;;2.20;1.77;;;19.00;65.60;;;;;;5486797;26;20215;-65
2024/04/09 05:29:54;;;;;;;3.08;1.98;;;19.00;65.60;;;;;;5487207;26;20257;-66
2024/04/09 05:32:19;;;;;;;2.83;2.20;;;19.00;65.60;;;;;;5487279;26;20246;-66
2024/04/09 05:34:45;;;;;;;2.40;2.00;;;19.00;65.60;;;;;;5486740;26;20235;-67
2024/04/09 05:37:11;;;;;;;1.90;1.80;;;19.00;65.60;;;;;;5486865;26;20268;-66
2024/04/09 05:39:36;;;;;;;2.13;2.03;;;19.00;65.60;;;;;;5487226;26;20716;-65
2024/04/09 05:42:02;;;;;;;3.55;2.28;;;19.00;65.60;;;;;;5486535;26;20273;-66
2024/04/09 05:44:27;;;;;;;2.15;1.95;;;19.00;65.60;;;;;;5486949;26;20260;-65
2024/04/09 05:46:53;;;;;;;2.13;1.98;;;19.00;65.60;;;;;;5487210;26;20274;-66
2024/04/09 05:49:21;;;;;;;2.13;1.92;;;19.00;65.60;;;;;;5486079;26;20222;-66
2024/04/09 05:51:47;;;;;;;2.15;2.00;;;18.90;66.40;;;;;;5487273;26;20265;-66
2024/04/09 05:54:13;;;;;;;3.17;1.98;;;19.00;65.60;;;;;;5486330;26;20234;-66
2024/04/09 05:56:38;;;;;;;1.80;1.70;;;18.90;65.50;;;;;;5486344;26;20323;-66
2024/04/09 05:59:04;;;;;;;2.10;1.90;;;18.90;65.50;;;;;;5486818;26;20613;-66
2024/04/09 06:01:30;;;;;;;2.15;2.03;;;19.00;65.60;;;;;;5486638;26;20701;-65
2024/04/09 06:03:56;;;;;;;2.50;1.95;;;19.00;65.60;;;;;;5486150;26;20222;-66
2024/04/09 06:06:21;;;;;;;2.55;2.00;;;18.90;65.50;;;;;;5486525;26;20218;-66
2024/04/09 06:08:47;;;;;;;1.75;1.65;;;18.90;65.50;;;;;;5486882;26;20218;-65
2024/04/09 06:11:12;;;;;;;2.08;1.92;;;19.00;65.60;;;;;;5485477;26;20218;-66
2024/04/09 06:13:38;;;;;;;2.40;1.90;;;18.90;65.50;;;;;;5486664;26;20219;-66
2024/04/09 06:16:04;;;;;;;1.85;1.75;;;19.00;65.60;;;;;;5486715;26;20252;-65
2024/04/09 06:18:30;;;;;;;2.00;1.85;;;18.90;65.50;;;;;;5485413;26;20226;-65
2024/04/09 06:20:55;;;;;;;2.22;2.05;;;18.90;65.50;;;;;;5486439;26;20314;-65
2024/04/09 06:23:21;;;;;;;2.00;1.85;;;18.90;65.50;;;;;;5488791;26;20230;-65
2024/04/09 06:25:54;;;;;;;1.88;1.77;;;18.90;65.50;;;;;;5489665;26;20261;-64
2024/04/09 06:28:20;;;;;;;2.28;2.08;;;18.90;65.50;;;;;;5490165;26;20222;-65
2024/04/09 06:30:45;;;;;;;2.20;1.60;;;18.90;65.50;;;;;;5490224;26;20257;-67
2024/04/09 06:33:11;;;;;;;2.33;2.00;;;19.00;65.50;;;;;;5489228;26;20257;-65
2024/04/09 06:35:37;;;;;;;2.20;1.80;;;18.90;65.50;;;;;;5490130;26;20218;-65
2024/04/09 06:38:03;;;;;;;1.88;1.75;;;19.00;65.50;;;;;;5489215;26;20295;-65
2024/04/09 06:40:31;;;;;;;2.75;1.92;;;19.00;65.60;;;;;;5489785;26;20686;-65
2024/04/09 06:42:57;;;;;;;2.75;1.73;;;18.90;65.70;;;;;;5490096;26;20555;-64
2024/04/09 06:45:25;;;;;;;2.10;1.90;;;19.00;65.90;;;;;;5488792;26;20331;-63
2024/04/09 06:47:51;;;;;;;2.80;2.05;;;19.00;65.90;;;;;;5490010;26;20214;-63
2024/04/09 06:50:16;;;;;;;3.33;2.10;;;19.00;65.80;;;;;;5489617;26;20257;-62
2024/04/09 06:52:42;;;;;;;4.43;1.95;;;19.10;65.80;;;;;;5489321;26;20214;-61
2024/04/09 06:55:08;;;;;;;7.78;2.20;;;19.10;66.10;;;;;;5489673;26;20257;-63
2024/04/09 06:57:34;;;;;;;2.65;2.03;;;19.10;65.80;;;;;;5489917;26;20273;-63
2024/04/09 06:59:59;;;;;;;1.77;1.67;;;19.10;65.60;;;;;;5488999;26;20218;-63
2024/04/09 07:02:25;;;;;;;1.98;1.77;;;19.10;65.80;;;;;;5489480;26;20230;-63
2024/04/09 07:04:51;;;;;;;2.22;1.85;;;19.10;65.90;;;;;;5489668;26;20222;-64
2024/04/09 07:07:17;;;;;;;2.13;1.70;;;19.10;65.50;;;;;;5488389;26;20230;-63
2024/04/09 07:09:43;;;;;;;1.77;1.60;;;19.10;65.50;;;;;;5489961;26;20218;-63
2024/04/09 07:12:09;;;;;;;2.72;1.83;;;19.10;65.50;;;;;;5489419;26;20214;-63
2024/04/09 07:14:34;;;;;;;2.90;1.60;;;19.10;65.50;;;;;;5488990;26;20314;-64
2024/04/09 07:17:00;;;;;;;2.50;1.67;;;19.10;65.50;;;;;;5489590;26;20314;-63
2024/04/09 07:19:27;;;;;;;1.50;1.40;;;19.10;65.50;;;;;;5489189;26;20227;-63
2024/04/09 07:21:52;;;;;;;2.38;2.10;;;19.00;65.30;;;;;;5488876;26;20218;-63
2024/04/09 07:24:18;;;;;;;2.28;1.65;;;19.10;65.30;;;;;;5489232;26;20257;-63
2024/04/09 07:26:43;;;;;;;1.95;1.83;;;19.00;65.10;;;;;;5489773;26;20218;-64
2024/04/09 07:29:09;;;;;;;2.47;1.77;;;19.10;65.10;;;;;;5488172;26;20252;-63
2024/04/09 07:31:36;;;;;;;1.73;1.60;;;19.10;64.90;;;;;;5489512;26;20218;-63
2024/04/09 07:34:01;;;;;;;1.70;1.60;;;19.10;64.80;;;;;;5488977;26;20253;-63
2024/04/09 07:36:27;;;;;;;1.88;1.50;;;19.10;64.80;;;;;;5488301;26;20222;-63
2024/04/09 07:38:52;;;;;;;1.40;1.30;;;19.10;64.60;;;;;;5489298;26;20218;-64
2024/04/09 07:41:22;;;;;;;2.42;1.60;;;19.20;64.50;;;;;;5488246;26;20789;-63
2024/04/09 07:43:51;;;;;;;1.42;1.13;;;19.10;64.40;;;;;;5489580;26;20214;-63
2024/04/09 07:46:16;;;;;;;1.70;1.30;;;19.10;64.40;;;;;;5489136;26;20274;-63
2024/04/09 07:48:42;;;;;;;3.45;1.42;;;19.10;64.20;;;;;;5488630;26;20261;-64
2024/04/09 07:51:08;;;;;;;1.23;1.13;;;19.10;64.20;;;;;;5488964;26;20222;-63
2024/04/09 07:53:34;;;;;;;2.20;1.40;;;19.10;64.10;;;;;;5489309;26;20256;-64
2024/04/09 07:56:03;;;;;;;2.17;1.55;;;19.20;64.10;;;;;;5489409;26;20314;-65
2024/04/09 07:58:29;;;;;;;1.55;1.25;;;19.10;63.90;;;;;;5488196;26;20227;-63
2024/04/09 08:00:54;;;;;;;2.28;1.27;;;19.20;63.90;;;;;;5488963;26;20728;-64
2024/04/09 08:03:20;;;;;;;1.60;1.50;;;19.20;63.70;;;;;;5487816;26;20689;-63
2024/04/09 08:05:45;;;;;;;2.58;1.55;;;19.20;63.60;;;;;;5489044;26;20789;-63
2024/04/09 08:08:11;;;;;;;1.77;1.58;;;19.20;63.50;;;;;;5486625;26;20774;-64
2024/04/09 08:10:38;;;;;;;2.00;1.35;;;19.30;63.50;;;;;;5488163;26;20570;-64
2024/04/09 08:13:03;;;;;;;2.03;1.45;;;19.30;63.40;;;;;;5488755;26;20218;-63
2024/04/09 08:15:29;;;;;;;1.25;1.15;;;19.30;63.40;;;;;;5488470;26;20739;-63
2024/04/09 08:17:56;;;;;;;1.23;1.13;;;19.30;63.50;;;;;;5487970;26;20319;-63
2024/04/09 08:20:21;;;;;;;1.77;1.27;;;19.20;63.50;;;;;;5488568;26;20307;-63
2024/04/09 08:22:49;;;;;;;2.20;1.42;;;19.20;63.40;;;;;;5488749;26;20736;-63
2024/04/09 08:25:15;;;;;;;2.83;1.30;;;19.20;63.30;;;;;;5487534;26;20314;-63
2024/04/09 08:27:41;;;;;;;1.00;1.00;;;19.20;63.10;;;;;;5488695;26;20218;-63
2024/04/09 08:30:08;;;;;;;3.28;1.40;;;19.20;63.10;;;;;;5488542;26;20573;-63
2024/04/09 08:32:34;;;;;;;2.08;1.42;;;19.20;62.90;;;;;;5487979;26;20266;-63
2024/04/09 08:35:00;;;;;;;1.40;1.23;;;19.20;62.90;;;;;;5488537;26;20215;-63
2024/04/09 08:37:26;;;;;;;2.08;1.30;;;19.20;62.90;;;;;;5487460;26;20257;-63
2024/04/09 08:39:55;;;;;;;2.20;1.13;;;19.20;62.80;;;;;;5488361;26;20628;-63
2024/04/09 08:42:24;;;;;;;2.50;1.20;;;19.20;62.80;;;;;;5488139;26;20265;-64
2024/04/09 08:44:50;;;;;;;2.17;1.27;;;19.20;62.60;;;;;;5486517;26;20219;-64
2024/04/09 08:47:18;;;;;;;2.67;1.20;;;19.20;62.70;;;;;;5488031;26;20218;-63
2024/04/09 08:49:44;;;;;;;2.15;1.13;;;19.20;62.70;;;;;;5486720;26;20261;-63
2024/04/09 08:52:09;;;;;;;1.02;0.93;;;19.20;62.70;;;;;;5484209;26;20214;-64
2024/04/09 08:54:35;;;;;;;1.92;1.20;;;19.20;62.60;;;;;;5488314;26;20210;-63
2024/04/09 08:57:01;;;;;;;1.58;1.10;;;19.20;62.60;;;;;;5455871;26;20210;-63
2024/04/09 08:59:29;;;;;;;1.52;1.30;;;19.30;62.70;;;;;;5455444;26;20261;-63
2024/04/09 09:01:54;;;;;;;1.23;1.13;;;19.30;62.60;;;;;;5486137;26;20218;-64
2024/04/09 09:04:20;;;;;;;3.47;1.35;;;19.30;62.70;;;;;;5487725;26;20253;-62
2024/04/09 09:06:46;;;;;;;1.45;1.10;;;19.30;62.70;;;;;;5487130;26;20339;-64
2024/04/09 09:09:25;;;;;;;2.13;1.10;;;19.30;62.60;;;;;;5487511;26;20230;-65
2024/04/09 09:11:52;;;;;;;2.22;1.20;;;19.30;62.50;;;;;;5487845;26;20299;-64
2024/04/09 09:14:19;;;;;;;1.20;1.10;;;19.40;62.20;;;;;;5485123;26;20227;-64
2024/04/09 09:16:45;;;;;;;2.42;1.38;;;19.40;62.10;;;;;;5487848;26;20230;-64
2024/04/09 09:19:10;;;;;;;1.42;1.05;;;19.40;61.90;;;;;;5485478;26;20306;-63
2024/04/09 09:21:40;;;;;;;2.38;1.05;;;19.50;61.90;;;;;;5486823;26;20269;-63
2024/04/09 09:24:06;;;;;;;3.45;1.10;;;19.50;61.60;;;;;;5485937;26;20214;-64
2024/04/09 09:26:32;;;;;;;1.73;1.30;;;19.60;61.80;;;;;;5487211;26;20681;-64
2024/04/09 09:29:04;;;;;;;1.33;1.20;;;19.60;61.70;;;;;;5486309;26;20728;-64
2024/04/09 09:31:31;;;;;;;1.75;1.17;;;19.60;61.50;;;;;;5487103;26;20563;-65
2024/04/09 09:33:56;;;;;;;3.10;1.20;;;19.60;61.20;;;;;;5486676;26;20264;-64
2024/04/09 09:36:22;;;;;;;2.53;1.02;;;19.70;61.30;;;;;;5455213;26;20218;-63
2024/04/09 09:38:47;;;;;;;2.33;1.27;;;19.60;61.00;;;;;;5455502;26;20222;-64
2024/04/09 09:41:13;;;;;;;3.65;1.50;;;19.60;61.10;;;;;;5483854;26;20578;-64
2024/04/09 09:43:39;;;;;;;1.80;0.90;;;19.60;60.80;;;;;;5485534;26;20250;-64
2024/04/09 09:46:04;;;;;;;1.38;1.08;;;19.60;60.70;;;;;;5485569;26;20677;-64
2024/04/09 09:48:29;;;;;;;2.53;1.00;;;19.70;60.60;;;;;;5486079;26;20259;-64
2024/04/09 09:50:56;;;;;;;1.48;1.00;;;19.70;60.40;;;;;;5455312;26;20400;-64
2024/04/09 09:53:22;;;;;;;4.10;1.05;;;19.80;60.40;;;;;;5486829;26;20218;-64
2024/04/09 09:55:48;;;;;;;1.48;1.15;;;19.80;60.20;;;;;;5484050;26;20269;-64
2024/04/09 09:58:20;;;;;;;1.52;1.10;;;19.70;60.30;;;;;;5458169;26;20707;-64
2024/04/09 10:00:47;;;;;;;2.03;1.02;;;19.70;60.30;;;;;;5457623;26;20328;-64
2024/04/09 10:03:14;;;;;;;1.30;1.10;;;19.70;60.20;;;;;;5487529;26;20837;-63
2024/04/09 10:05:40;;;;;;;0.93;0.80;;;19.70;60.20;;;;;;5452203;26;20698;-63
2024/04/09 10:08:18;;;;;;;3.50;1.10;;;19.70;60.00;;;;;;5452404;26;20231;-64
2024/04/09 10:10:46;;;;;;;1.73;1.13;;;19.70;60.00;;;;;;5453471;26;20982;-64
2024/04/09 10:13:12;;;;;;;2.20;1.38;;;19.80;59.90;;;;;;5470188;26;20273;-63
2024/04/09 10:15:43;;;;;;;3.13;1.00;;;19.80;59.80;;;;;;5490695;26;20609;-63
2024/04/09 10:18:09;;;;;;;1.40;1.00;;;19.80;59.80;;;;;;5489185;26;20257;-63
2024/04/09 10:20:37;;;;;;;2.05;1.05;;;19.80;59.90;;;;;;5488831;26;20558;-63
2024/04/09 10:23:04;;;;;;;1.60;1.00;;;19.80;59.90;;;;;;5489571;26;20584;-63
2024/04/09 10:25:40;;;;;;;4.10;1.15;;;19.70;59.80;;;;;;5490063;26;20704;-63
2024/04/09 10:28:10;;;;;;;2.95;1.10;;;19.80;59.90;;;;;;5490522;26;20254;-63
2024/04/09 10:30:42;;;;;;;3.65;1.10;;;19.80;59.90;;;;;;5489355;26;20230;-64
2024/04/09 10:33:08;;;;;;;1.10;0.85;;;19.70;59.80;;;;;;5490035;26;20274;-63
2024/04/09 10:35:34;;;;;;;3.40;1.30;;;19.70;59.70;;;;;;5490244;26;20222;-64
2024/04/09 10:38:06;;;;;;;1.63;1.02;;;19.70;59.70;;;;;;5489283;26;20266;-64
2024/04/09 10:40:36;;;;;;;1.95;1.15;;;19.80;59.70;;;;;;5489813;26;20284;-63
2024/04/09 10:43:02;;;;;;;2.80;0.90;;;19.80;59.70;;;;;;5489988;26;20793;-63
2024/04/09 10:45:31;;;;;;;1.55;0.90;;;19.80;59.60;;;;;;5488946;26;21052;-63
2024/04/09 10:47:57;;;;;;;2.33;0.80;;;19.80;59.50;;;;;;5488415;26;20274;-64
2024/04/09 10:50:22;;;;;;;2.17;1.23;;;19.90;59.40;;;;;;5488117;26;20591;-63
2024/04/09 10:52:48;;;;;;;2.75;1.10;;;19.90;59.40;;;;;;5489342;26;20224;-63
2024/04/09 10:55:15;;;;;;;2.50;0.95;;;19.90;59.40;;;;;;5457730;26;20233;-63
2024/04/09 10:57:40;;;;;;;1.63;1.10;;;19.90;59.30;;;;;;5490098;26;20629;-63
2024/04/09 11:00:09;;;;;;;1.33;1.00;;;19.90;59.40;;;;;;5488691;26;20728;-63
2024/04/09 11:02:36;;;;;;;2.80;1.30;;;19.80;59.50;;;;;;5489788;26;20272;-63
2024/04/09 11:05:02;;;;;;;2.35;1.08;;;19.80;59.50;;;;;;5487923;26;20580;-64
2024/04/09 11:07:28;;;;;;;2.40;1.00;;;19.80;59.40;;;;;;5488673;26;20322;-64
2024/04/09 11:09:57;;;;;;;4.10;1.27;;;19.80;59.50;;;;;;5487372;26;20234;-66
2024/04/09 11:12:22;;;;;;;1.17;0.95;;;19.70;59.60;;;;;;5486170;26;20607;-64
2024/04/09 11:14:48;;;;;;;2.97;1.33;;;19.70;59.80;;;;;;5489454;26;20332;-64
2024/04/09 11:17:17;;;;;;;4.50;1.20;;;19.70;59.80;;;;;;5487419;26;20278;-63
2024/04/09 11:19:43;;;;;;;2.05;1.13;;;19.80;59.80;;;;;;5488916;26;20226;-63
2024/04/09 11:22:10;;;;;;;6.05;1.55;;;19.80;59.80;;;;;;5489316;26;20218;-64
2024/04/09 11:24:38;;;;;;;4.35;1.45;;;19.80;59.90;;;;;;5487660;26;20339;-63
2024/04/09 11:27:07;;;;;;;4.05;1.38;;;19.80;60.00;;;;;;5486815;26;20303;-64
2024/04/09 11:29:33;;;;;;;4.28;1.77;;;19.80;60.00;;;;;;5487800;26;20261;-63
2024/04/09 11:32:02;;;;;;;10.13;2.63;;;19.80;60.00;;;;;;5489414;26;20222;-64
2024/04/09 11:34:31;;;;;;;6.97;1.70;;;19.80;60.00;;;;;;5488284;26;20253;-65
2024/04/09 11:37:01;;;;;;;6.35;1.83;;;19.80;60.10;;;;;;5489345;26;20335;-65
2024/04/09 11:39:26;;;;;;;4.03;1.73;;;19.80;60.30;;;;;;5489121;26;20278;-64
2024/04/09 11:41:53;;;;;;;4.13;1.60;;;19.80;60.30;;;;;;5488433;26;20218;-65
2024/04/09 11:44:22;;;;;;;3.72;1.90;;;19.80;60.40;;;;;;5488925;26;20222;-65
2024/04/09 11:46:48;;;;;;;8.35;1.80;;;19.80;60.60;;;;;;5489432;26;20222;-66
2024/04/09 11:49:14;;;;;;;3.88;1.63;;;19.70;60.50;;;;;;5487941;26;20591;-65
2024/04/09 11:51:39;;;;;;;5.75;1.85;;;19.80;60.50;;;;;;5489266;26;20326;-65
2024/04/09 11:54:06;;;;;;;3.25;1.83;;;19.80;60.50;;;;;;5487233;26;20278;-64
2024/04/09 11:56:32;;;;;;;5.53;2.33;;;19.90;60.50;;;;;;5486184;26;20585;-66
2024/04/09 11:58:58;;;;;;;6.40;2.47;;;19.90;60.30;;;;;;5488812;26;20242;-67
2024/04/09 12:01:23;;;;;;;4.10;1.88;;;19.90;60.30;;;;;;5487979;26;20305;-66
2024/04/09 12:03:49;;;;;;;7.45;2.38;;;19.90;60.20;;;;;;5487218;26;20230;-65
2024/04/09 12:06:14;;;;;;;7.35;2.03;;;19.90;60.10;;;;;;5486722;26;20226;-66
2024/04/09 12:08:40;;;;;;;4.63;1.80;;;19.90;60.00;;;;;;5487562;26;20290;-67
2024/04/09 12:11:06;;;;;;;5.10;1.70;;;19.80;60.20;;;;;;5488135;26;20265;-67
2024/04/09 12:13:31;;;;;;;3.70;1.48;;;19.80;60.10;;;;;;5488114;26;20242;-65
2024/04/09 12:15:57;;;;;;;4.78;1.85;;;19.80;60.10;;;;;;5487205;26;20234;-65
2024/04/09 12:18:23;;;;;;;5.13;2.03;;;19.80;60.20;;;;;;5488476;26;20322;-66
2024/04/09 12:20:48;;;;;;;3.53;1.45;;;19.80;60.10;;;;;;5487142;26;20218;-66
2024/04/09 12:23:14;;;;;;;4.32;1.73;;;19.80;60.10;;;;;;5485634;26;20257;-67
2024/04/09 12:25:41;;;;;;;3.53;1.80;;;19.80;60.00;;;;;;5487077;26;20215;-66
2024/04/09 12:28:06;;;;;;;7.28;1.75;;;19.80;59.90;;;;;;5488550;26;20215;-66
2024/04/09 12:30:33;;;;;;;3.17;1.30;;;19.80;59.80;;;;;;5487516;26;20300;-66
2024/04/09 12:32:59;;;;;;;5.03;1.58;;;19.80;59.70;;;;;;5488597;26;20257;-66
2024/04/09 12:35:24;;;;;;;6.32;1.33;;;19.80;59.90;;;;;;5486547;26;20214;-65
2024/04/09 12:37:50;;;;;;;4.45;1.90;;;19.70;59.80;;;;;;5487680;26;20226;-66
2024/04/09 12:40:15;;;;;;;3.13;1.52;;;19.70;59.80;;;;;;5488080;26;20226;-66
2024/04/09 12:42:41;;;;;;;3.50;1.42;;;19.60;59.60;;;;;;5488429;26;20254;-67
2024/04/09 12:45:07;;;;;;;4.03;1.42;;;19.60;59.60;;;;;;5487671;26;20218;-66